Time;durP1;ratioP1;P1;durP2;ratioP2;P2;SDS_P1;SDS_P2;PMS_P1;PMS_P2;Temp;Humidity;BMP_temperature;BMP_pressure;BME280_temperature;BME280_humidity;BME280_pressure;Samples;Min_cycle;Max_cycle;Signal;HPM_P1;HPM_P2
2024/03/10 00:00:24;;;;;;;;;;;;;;;8.63;88.57;99761.97;5075744;28;20140;-77
2024/03/10 00:02:50;;;;;;;;;;;;;;;8.58;88.79;99774.41;5075682;28;19916;-77
2024/03/10 00:05:15;;;;;;;;;;;;;;;8.47;89.13;99796.72;5075567;28;20201;-77
2024/03/10 00:07:41;;;;;;;;;;;;;;;8.42;89.61;99805.63;5076367;28;19920;-77
2024/03/10 00:10:07;;;;;;;;;;;;;;;8.37;89.87;99796.31;5084838;28;20286;-77
2024/03/10 00:12:32;;;;;;;;;;;;;;;8.29;90.07;99794.03;5076241;28;19923;-77
2024/03/10 00:14:57;;;;;;;;;;;;;;;8.29;90.27;99795.81;5078310;28;19927;-77
2024/03/10 00:17:23;;;;;;;;;;;;;;;8.29;90.29;99788.84;5096329;28;19927;-77
2024/03/10 00:19:48;;;;;;;;;;;;;;;8.31;90.27;99789.59;5088485;28;19917;-77
2024/03/10 00:22:14;;;;;;;;;;;;;;;8.33;90.31;99773.88;5084348;28;20082;-77
2024/03/10 00:24:39;;;;;;;;;;;;;;;8.37;90.01;99768.44;5074127;28;19966;-77
2024/03/10 00:27:04;;;;;;;;;;;;;;;8.41;89.79;99754.31;5062133;28;19924;-77
2024/03/10 00:29:29;;;;;;;;;;;;;;;8.43;89.37;99755.13;5079459;28;19939;-77
2024/03/10 00:31:55;;;;;;;;;;;;;;;8.42;89.53;99736.94;5092751;28;19920;-77
2024/03/10 00:34:20;;;;;;;;;;;;;;;8.44;89.20;99724.66;5091607;28;19945;-77
2024/03/10 00:36:45;;;;;;;;;;;;;;;8.42;89.30;99736.94;5095177;28;19919;-77
2024/03/10 00:39:10;;;;;;;;;;;;;;;8.34;89.74;99759.94;5091480;28;19951;-77
2024/03/10 00:41:36;;;;;;;;;;;;;;;8.27;90.00;99773.25;5086485;28;19924;-77
2024/03/10 00:44:02;;;;;;;;;;;;;;;8.23;90.13;99787.38;5085447;28;20215;-77
2024/03/10 00:46:28;;;;;;;;;;;;;;;8.22;90.72;99793.50;5097530;28;20104;-77
2024/03/10 00:48:53;;;;;;;;;;;;;;;8.23;90.75;99794.34;5096967;28;19946;-77
2024/03/10 00:51:19;;;;;;;;;;;;;;;8.21;90.95;99797.03;5097403;28;19942;-77
2024/03/10 00:53:45;;;;;;;;;;;;;;;8.19;91.00;99798.88;5094550;28;19920;-77
2024/03/10 00:56:10;;;;;;;;;;;;;;;8.17;90.67;99790.28;5083468;28;19920;-77
2024/03/10 00:58:36;;;;;;;;;;;;;;;8.13;90.60;99793.94;5077398;28;20197;-77
2024/03/10 01:01:04;;;;;;;;;;;;;;;8.13;90.52;99790.47;5058817;28;19928;-77
2024/03/10 01:03:29;;;;;;;;;;;;;;;8.15;90.62;99788.63;5066603;28;19946;-77
2024/03/10 01:05:55;;;;;;;;;;;;;;;8.12;90.26;99784.44;5093191;28;20115;-77
2024/03/10 01:08:20;;;;;;;;;;;;;;;8.17;89.69;99779.84;5067642;28;19929;-77
2024/03/10 01:10:46;;;;;;;;;;;;;;;8.15;89.54;99781.69;5096926;28;19908;-77
2024/03/10 01:13:15;;;;;;;;;;;;;;;8.16;89.48;99765.09;5085715;28;19955;-77
2024/03/10 01:15:41;;;;;;;;;;;;;;;8.18;89.16;99771.09;5079236;28;19966;-77
2024/03/10 01:18:07;;;;;;;;;;;;;;;8.11;89.22;99751.44;5076279;28;20167;-77
2024/03/10 01:20:32;;;;;;;;;;;;;;;8.10;88.94;99735.88;5085777;28;19924;-77
2024/03/10 01:22:57;;;;;;;;;;;;;;;8.11;89.12;99725.34;5095999;28;19916;-77
2024/03/10 01:25:22;;;;;;;;;;;;;;;8.13;89.01;99725.28;5087687;28;19925;-77
2024/03/10 01:27:48;;;;;;;;;;;;;;;8.14;88.76;99722.59;5076101;28;20215;-77
2024/03/10 01:30:13;;;;;;;;;;;;;;;8.10;88.79;99722.84;5087542;28;19987;-77
2024/03/10 01:32:39;;;;;;;;;;;;;;;8.05;89.13;99723.06;5085198;28;19920;-77
2024/03/10 01:35:05;;;;;;;;;;;;;;;8.05;89.04;99715.22;5083211;28;19927;-77
2024/03/10 01:37:31;;;;;;;;;;;;;;;8.02;88.70;99711.00;5080433;28;19916;-77
2024/03/10 01:39:56;;;;;;;;;;;;;;;8.05;88.81;99720.44;5076917;28;20294;-77
2024/03/10 01:42:21;;;;;;;;;;;;;;;8.06;88.79;99722.16;5075934;28;19986;-77
2024/03/10 01:44:47;;;;;;;;;;;;;;;7.99;88.93;99718.97;5081806;28;19932;-77
2024/03/10 01:47:12;;;;;;;;;;;;;;;7.98;89.06;99716.44;5094206;28;19920;-77
2024/03/10 01:49:38;;;;;;;;;;;;;;;7.99;89.52;99712.94;5093921;28;19916;-77
2024/03/10 01:52:03;;;;;;;;;;;;;;;8.00;88.95;99725.88;5095022;28;19931;-77
2024/03/10 01:54:32;;;;;;;;;;;;;;;7.99;88.96;99718.97;5095588;28;19924;-77
2024/03/10 01:56:58;;;;;;;;;;;;;;;8.03;88.67;99723.13;5080789;28;19935;-77
2024/03/10 01:59:24;;;;;;;;;;;;;;;8.01;88.75;99718.91;5086815;28;19999;-77
2024/03/10 02:01:50;;;;;;;;;;;;;;;7.99;88.58;99718.13;5080934;28;19928;-77
2024/03/10 02:04:16;;;;;;;;;;;;;;;7.99;88.52;99724.19;5075712;28;19932;-77
2024/03/10 02:06:45;;;;;;;;;;;;;;;8.00;88.67;99714.59;5084518;28;19920;-77
2024/03/10 02:09:12;;;;;;;;;;;;;;;8.04;88.54;99723.94;5083366;28;19921;-77
2024/03/10 02:11:37;;;;;;;;;;;;;;;8.03;88.51;99711.84;5079310;28;19920;-77
2024/03/10 02:14:07;;;;;;;;;;;;;;;8.07;88.63;99716.84;5084118;28;19961;-77
2024/03/10 02:16:33;;;;;;;;;;;;;;;8.11;88.16;99721.91;5089918;28;19912;-77
2024/03/10 02:18:58;;;;;;;;;;;;;;;8.03;87.80;99709.25;5080824;28;20221;-77
2024/03/10 02:21:24;;;;;;;;;;;;;;;8.04;88.28;99703.97;5093774;28;19954;-77
2024/03/10 02:24:01;;;;;;;;;;;;;;;8.11;87.78;99704.50;5074851;28;19962;-77
2024/03/10 02:26:32;;;;;;;;;;;;;;;8.13;87.19;99699.19;5075767;28;19919;-77
2024/03/10 02:29:14;;;;;;;;;;;;;;;8.15;86.95;99686.94;5075062;28;19920;-77
2024/03/10 02:48:06;;;;;;;;;;;;;;;7.97;88.00;99673.06;5079026;28;19928;-77
2024/03/10 02:50:32;;;;;;;;;;;;;;;7.92;87.98;99669.81;5094112;28;20250;-77
2024/03/10 02:52:57;;;;;;;;;;;;;;;7.94;87.93;99679.25;5081464;28;19920;-77
2024/03/10 02:55:22;;;;;;;;;;;;;;;7.92;88.01;99682.84;5083391;28;19928;-77
2024/03/10 02:57:47;;;;;;;;;;;;;;;7.93;88.36;99679.31;5074908;28;20227;-77
2024/03/10 03:00:13;;;;;;;;;;;;;;;7.91;88.35;99684.59;5075326;28;19947;-77
2024/03/10 03:02:38;;;;;;;;;;;;;;;7.96;88.27;99676.56;5091141;28;19927;-77
2024/03/10 03:05:04;;;;;;;;;;;;;;;7.93;88.25;99689.75;5094311;28;19931;-77
2024/03/10 03:07:29;;;;;;;;;;;;;;;7.93;88.47;99681.91;5090489;28;19921;-77
2024/03/10 03:09:54;;;;;;;;;;;;;;;7.92;88.23;99681.06;5080167;28;19924;-77
2024/03/10 03:12:20;;;;;;;;;;;;;;;7.91;88.20;99668.13;5065990;28;20215;-77
2024/03/10 03:14:45;;;;;;;;;;;;;;;7.88;88.22;99664.75;5088783;28;20098;-77
2024/03/10 03:17:11;;;;;;;;;;;;;;;7.84;88.39;99658.00;5093770;28;20121;-77
2024/03/10 03:19:36;;;;;;;;;;;;;;;7.85;88.65;99651.00;5086311;28;20210;-77
2024/03/10 03:22:02;;;;;;;;;;;;;;;7.88;88.50;99650.88;5081044;28;20211;-76
2024/03/10 03:24:27;;;;;;;;;;;;;;;7.87;88.22;99654.38;5077540;28;19924;-77
2024/03/10 03:26:56;;;;;;;;;;;;;;;7.79;88.46;99652.16;5077452;28;20311;-77
2024/03/10 03:29:21;;;;;;;;;;;;;;;7.82;88.65;99645.94;5078915;28;20203;-77
2024/03/10 03:31:46;;;;;;;;;;;;;;;7.90;88.55;99656.03;5067706;28;19964;-77
2024/03/10 03:34:11;;;;;;;;;;;;;;;7.85;88.48;99643.19;5096934;28;19927;-77
2024/03/10 03:36:37;;;;;;;;;;;;;;;7.87;88.61;99649.16;5094896;28;19947;-77
2024/03/10 03:39:05;;;;;;;;;;;;;;;7.85;88.57;99645.78;5084784;28;19958;-77
2024/03/10 03:41:31;;;;;;;;;;;;;;;7.86;89.16;99650.09;5098735;28;20212;-77
2024/03/10 03:43:56;;;;;;;;;;;;;;;7.85;89.06;99644.03;5096607;28;19949;-77
2024/03/10 03:46:21;;;;;;;;;;;;;;;7.82;88.54;99646.81;5098231;28;20120;-76
2024/03/10 03:48:46;;;;;;;;;;;;;;;7.82;88.71;99651.16;5083102;28;19928;-77
2024/03/10 03:51:12;;;;;;;;;;;;;;;7.80;88.94;99650.38;5077140;28;19916;-77
2024/03/10 03:53:38;;;;;;;;;;;;;;;7.82;88.74;99653.75;5059224;28;20794;-77
2024/03/10 03:56:03;;;;;;;;;;;;;;;7.81;88.72;99647.72;5077322;28;20358;-77
2024/03/10 03:58:28;;;;;;;;;;;;;;;7.79;89.06;99646.94;5078291;28;19993;-77
2024/03/10 04:00:54;;;;;;;;;;;;;;;7.79;88.83;99643.50;5094974;28;19947;-77
2024/03/10 04:03:19;;;;;;;;;;;;;;;7.78;88.31;99650.44;5097771;28;20158;-77
2024/03/10 04:05:44;;;;;;;;;;;;;;;7.80;88.64;99645.16;5091303;28;19924;-77
2024/03/10 04:08:11;;;;;;;;;;;;;;;7.77;88.85;99640.13;5077169;28;19992;-77
2024/03/10 04:10:36;;;;;;;;;;;;;;;7.77;88.72;99642.72;5081250;28;19920;-77
2024/03/10 04:13:05;;;;;;;;;;;;;;;7.80;88.90;99637.34;5077059;28;20215;-77
2024/03/10 04:15:31;;;;;;;;;;;;;;;7.77;88.80;99640.13;5083517;28;19924;-77
2024/03/10 04:17:56;;;;;;;;;;;;;;;7.75;88.52;99627.16;5090587;28;20149;-77
2024/03/10 04:20:21;;;;;;;;;;;;;;;7.72;88.71;99634.28;5081157;28;19944;-77
2024/03/10 04:22:48;;;;;;;;;;;;;;;7.79;88.70;99626.09;5077419;28;19921;-77
2024/03/10 04:25:14;;;;;;;;;;;;;;;7.73;88.96;99625.53;5078602;28;19932;-77
2024/03/10 04:27:40;;;;;;;;;;;;;;;7.76;88.99;99628.84;5077547;28;19923;-77
2024/03/10 04:30:06;;;;;;;;;;;;;;;7.75;89.27;99629.78;5081720;28;20249;-77
2024/03/10 04:32:31;;;;;;;;;;;;;;;7.73;89.47;99622.94;5097237;28;19920;-77
2024/03/10 04:34:57;;;;;;;;;;;;;;;7.71;89.52;99625.59;5081249;28;19920;-77
2024/03/10 04:37:25;;;;;;;;;;;;;;;7.70;89.49;99631.75;5069563;28;20227;-76
2024/03/10 04:39:51;;;;;;;;;;;;;;;7.68;89.93;99625.78;5082098;28;19951;-77
2024/03/10 04:42:16;;;;;;;;;;;;;;;7.71;89.79;99630.81;5078288;28;19920;-77
2024/03/10 04:44:41;;;;;;;;;;;;;;;7.73;89.78;99634.22;5081197;28;19969;-77
2024/03/10 04:47:07;;;;;;;;;;;;;;;7.68;90.05;99633.59;5077892;28;20058;-77
2024/03/10 04:49:33;;;;;;;;;;;;;;;7.68;90.14;99641.41;5058998;28;19947;-77
2024/03/10 04:51:59;;;;;;;;;;;;;;;7.64;90.74;99642.44;5094936;28;19927;-77
2024/03/10 04:54:24;;;;;;;;;;;;;;;7.62;91.01;99631.25;5097393;28;19920;-77
2024/03/10 04:56:49;;;;;;;;;;;;;;;7.63;90.89;99632.97;5095453;28;19927;-77
2024/03/10 04:59:14;;;;;;;;;;;;;;;7.64;91.28;99632.88;5088999;28;19947;-77
2024/03/10 05:01:40;;;;;;;;;;;;;;;7.65;91.13;99631.94;5086328;28;20126;-77
2024/03/10 05:04:05;;;;;;;;;;;;;;;7.63;91.32;99636.41;5078222;28;19930;-77
2024/03/10 05:06:30;;;;;;;;;;;;;;;7.62;91.55;99645.16;5062485;28;20128;-77
2024/03/10 05:08:56;;;;;;;;;;;;;;;7.59;91.48;99632.25;5096487;28;19923;-77
2024/03/10 05:11:21;;;;;;;;;;;;;;;7.60;91.45;99630.50;5094889;28;19997;-77
2024/03/10 05:13:46;;;;;;;;;;;;;;;7.63;91.75;99615.56;5096973;28;19987;-77
2024/03/10 05:16:12;;;;;;;;;;;;;;;7.63;91.31;99612.09;5091857;28;19951;-77
2024/03/10 05:18:37;;;;;;;;;;;;;;;7.63;91.25;99623.38;5092763;28;19927;-77
2024/03/10 05:21:03;;;;;;;;;;;;;;;7.64;91.03;99617.25;5095041;28;19959;-77
2024/03/10 05:23:28;;;;;;;;;;;;;;;7.58;91.30;99608.88;5077396;28;19920;-76
2024/03/10 05:25:53;;;;;;;;;;;;;;;7.59;91.53;99613.19;5076779;28;19978;-77
2024/03/10 05:28:18;;;;;;;;;;;;;;;7.47;91.30;99607.63;5076517;28;19956;-77
2024/03/10 05:30:44;;;;;;;;;;;;;;;7.46;91.72;99603.34;5076567;28;19925;-77
2024/03/10 05:33:10;;;;;;;;;;;;;;;7.43;92.01;99605.25;5077943;28;20030;-77
2024/03/10 05:35:35;;;;;;;;;;;;;;;7.40;92.21;99606.22;5083670;28;20199;-77
2024/03/10 05:38:00;;;;;;;;;;;;;;;7.41;91.96;99599.28;5082974;28;19920;-77
2024/03/10 05:40:25;;;;;;;;;;;;;;;7.38;92.32;99599.41;5075931;28;19935;-77
2024/03/10 05:42:51;;;;;;;;;;;;;;;7.37;92.40;99608.13;5076527;28;19921;-77
2024/03/10 05:45:18;;;;;;;;;;;;;;;7.37;92.42;99609.00;5081418;28;19947;-77
2024/03/10 05:47:43;;;;;;;;;;;;;;;7.40;92.49;99610.59;5075494;28;20147;-77
2024/03/10 05:50:09;;;;;;;;;;;;;;;7.38;92.32;99612.44;5074918;28;19924;-77
2024/03/10 05:52:34;;;;;;;;;;;;;;;7.35;92.62;99608.22;5075941;28;19979;-77
2024/03/10 05:54:59;;;;;;;;;;;;;;;7.32;92.51;99608.34;5074765;28;20236;-77
2024/03/10 05:57:25;;;;;;;;;;;;;;;7.29;93.18;99606.75;5076807;28;19927;-77
2024/03/10 05:59:50;;;;;;;;;;;;;;;7.24;92.66;99607.84;5076322;28;19938;-77
2024/03/10 06:02:16;;;;;;;;;;;;;;;7.21;93.05;99608.84;5095544;28;20149;-77
2024/03/10 06:04:41;;;;;;;;;;;;;;;7.18;93.37;99616.78;5072531;28;20238;-77
2024/03/10 06:07:07;;;;;;;;;;;;;;;7.20;93.50;99603.72;5093915;28;19920;-77
2024/03/10 06:09:35;;;;;;;;;;;;;;;7.15;93.46;99597.88;5090686;28;19943;-77
2024/03/10 06:12:01;;;;;;;;;;;;;;;7.17;93.71;99596.03;5094805;28;19908;-77
2024/03/10 06:14:28;;;;;;;;;;;;;;;7.09;93.62;99601.59;5094679;28;19920;-77
2024/03/10 06:16:53;;;;;;;;;;;;;;;7.07;94.00;99606.88;5076577;28;19928;-77
2024/03/10 06:27:30;;;;;;;;;;;;;;;7.03;94.29;99607.94;5075326;28;19966;-77
2024/03/10 06:29:56;;;;;;;;;;;;;;;6.97;94.16;99616.03;5080791;28;20159;-77
2024/03/10 06:32:21;;;;;;;;;;;;;;;6.99;94.46;99621.19;5075398;28;19920;-77
2024/03/10 06:34:46;;;;;;;;;;;;;;;6.99;94.57;99615.97;5057301;28;20081;-77
2024/03/10 06:37:12;;;;;;;;;;;;;;;7.01;94.54;99628.00;5074809;28;19953;-77
2024/03/10 06:39:37;;;;;;;;;;;;;;;6.99;94.50;99629.81;5076597;28;19948;-77
2024/03/10 06:42:03;;;;;;;;;;;;;;;6.94;94.18;99633.53;5068907;28;19927;-77
2024/03/10 06:44:28;;;;;;;;;;;;;;;6.91;94.29;99631.91;5088472;28;19975;-77
2024/03/10 06:46:53;;;;;;;;;;;;;;;6.89;94.49;99631.13;5074410;28;19927;-77
2024/03/10 06:49:19;;;;;;;;;;;;;;;6.92;94.41;99631.84;5074718;28;19924;-77
2024/03/10 06:51:44;;;;;;;;;;;;;;;6.95;94.50;99632.63;5074782;28;20162;-77
2024/03/10 06:54:10;;;;;;;;;;;;;;;6.92;94.41;99631.00;5075984;28;19916;-77
2024/03/10 06:56:36;;;;;;;;;;;;;;;6.88;94.20;99632.91;5094860;28;19952;-77
2024/03/10 06:59:02;;;;;;;;;;;;;;;6.91;94.32;99631.91;5088514;28;19908;-77
2024/03/10 07:01:29;;;;;;;;;;;;;;;6.90;94.32;99627.63;5091082;28;20235;-77
2024/03/10 07:03:54;;;;;;;;;;;;;;;6.95;94.11;99627.41;5079192;28;19920;-77
2024/03/10 07:06:22;;;;;;;;;;;;;;;6.90;94.37;99628.47;5079446;28;19955;-77
2024/03/10 07:08:48;;;;;;;;;;;;;;;6.88;94.60;99621.66;5087774;28;19920;-77
2024/03/10 07:11:13;;;;;;;;;;;;;;;6.89;94.57;99629.41;5079102;28;19928;-77
2024/03/10 07:13:39;;;;;;;;;;;;;;;6.87;94.06;99625.16;5075811;28;20180;-77
2024/03/10 07:16:05;;;;;;;;;;;;;;;6.88;94.18;99630.31;5073011;28;19932;-77
2024/03/10 07:18:31;;;;;;;;;;;;;;;6.88;93.91;99630.31;5073992;28;20018;-76
2024/03/10 07:20:56;;;;;;;;;;;;;;;6.85;94.11;99633.03;5073075;28;20197;-77
2024/03/10 07:23:22;;;;;;;;;;;;;;;6.91;94.27;99644.94;5074040;28;19927;-77
2024/03/10 07:25:47;;;;;;;;;;;;;;;6.89;94.22;99649.34;5073599;28;19924;-77
2024/03/10 07:28:12;;;;;;;;;;;;;;;6.90;93.99;99645.84;5073250;28;20378;-77
2024/03/10 07:30:38;;;;;;;;;;;;;;;6.88;93.99;99655.50;5073997;28;19995;-77
2024/03/10 07:33:03;;;;;;;;;;;;;;;6.88;94.00;99650.28;5073544;28;19920;-76
2024/03/10 07:35:28;;;;;;;;;;;;;;;6.89;93.70;99642.41;5074615;28;20262;-77
2024/03/10 07:37:54;;;;;;;;;;;;;;;6.91;93.77;99644.94;5074595;28;19944;-76
2024/03/10 07:40:19;;;;;;;;;;;;;;;6.90;93.71;99646.69;5074830;28;20021;-76
2024/03/10 07:42:44;;;;;;;;;;;;;;;6.93;93.13;99648.34;5074281;28;19916;-78
2024/03/10 07:45:10;;;;;;;;;;;;;;;6.90;93.35;99649.28;5073728;28;19995;-76
2024/03/10 07:47:42;;;;;;;;;;;;;;;6.92;93.17;99644.03;5074084;28;19987;-76
2024/03/10 07:50:08;;;;;;;;;;;;;;;6.91;93.12;99634.50;5072286;28;19925;-76
2024/03/10 07:52:33;;;;;;;;;;;;;;;6.93;93.13;99648.34;5074266;28;19938;-77
2024/03/10 07:54:58;;;;;;;;;;;;;;;6.93;92.96;99650.94;5073649;28;19934;-76
2024/03/10 07:57:24;;;;;;;;;;;;;;;6.91;93.01;99631.91;5074518;28;20207;-76
2024/03/10 07:59:50;;;;;;;;;;;;;;;6.95;93.03;99625.69;5072923;28;19954;-76
2024/03/10 08:02:15;;;;;;;;;;;;;;;6.95;93.10;99635.22;5073656;28;20246;-78
2024/03/10 08:04:40;;;;;;;;;;;;;;;6.97;92.89;99629.06;5073520;28;20143;-79
2024/03/10 08:07:07;;;;;;;;;;;;;;;7.02;92.57;99634.91;5078011;28;19995;-77
2024/03/10 08:09:33;;;;;;;;;;;;;;;7.00;92.28;99631.50;5093647;28;19969;-77
2024/03/10 08:11:58;;;;;;;;;;;;;;;7.02;92.63;99628.81;5095095;28;20240;-77
2024/03/10 08:14:23;;;;;;;;;;;;;;;7.03;92.34;99631.38;5095126;28;20199;-77
2024/03/10 08:16:49;;;;;;;;;;;;;;;7.06;92.22;99627.78;5085314;28;20207;-76
2024/03/10 08:19:14;;;;;;;;;;;;;;;7.10;92.34;99630.16;5077496;28;19962;-76
2024/03/10 08:21:39;;;;;;;;;;;;;;;7.14;92.22;99617.03;5077467;28;19920;-78
2024/03/10 08:24:05;;;;;;;;;;;;;;;7.17;92.40;99627.28;5077439;28;19924;-78
2024/03/10 08:26:31;;;;;;;;;;;;;;;7.14;92.03;99625.66;5086805;28;20223;-78
2024/03/10 08:28:56;;;;;;;;;;;;;;;7.21;91.93;99623.63;5064951;28;19955;-78
2024/03/10 08:31:21;;;;;;;;;;;;;;;7.26;91.66;99630.31;5098202;28;20108;-76
2024/03/10 08:33:47;;;;;;;;;;;;;;;7.29;91.97;99622.38;5097362;28;19951;-78
2024/03/10 08:36:12;;;;;;;;;;;;;;;7.32;91.80;99623.97;5077723;28;19916;-78
2024/03/10 08:38:37;;;;;;;;;;;;;;;7.34;91.68;99631.72;5077702;28;20242;-77
2024/03/10 08:41:04;;;;;;;;;;;;;;;7.31;92.01;99627.50;5090409;28;19928;-78
2024/03/10 08:43:30;;;;;;;;;;;;;;;7.38;91.83;99630.66;5088478;28;19927;-78
2024/03/10 08:45:57;;;;;;;;;;;;;;;7.41;91.77;99631.38;5078727;28;19925;-78
2024/03/10 08:48:22;;;;;;;;;;;;;;;7.44;91.65;99631.22;5062667;28;19916;-78
2024/03/10 08:50:47;;;;;;;;;;;;;;;7.47;90.99;99628.47;5069794;28;19958;-78
2024/03/10 08:53:13;;;;;;;;;;;;;;;7.47;91.01;99638.03;5087817;28;20116;-78
2024/03/10 08:55:38;;;;;;;;;;;;;;;7.50;91.06;99643.13;5066285;28;19927;-78
2024/03/10 08:58:03;;;;;;;;;;;;;;;7.55;90.77;99641.16;5060438;28;19952;-78
2024/03/10 09:00:30;;;;;;;;;;;;;;;7.57;90.91;99644.53;5080526;28;19973;-78
2024/03/10 09:02:55;;;;;;;;;;;;;;;7.63;90.65;99656.41;5075383;28;20268;-78
2024/03/10 09:05:20;;;;;;;;;;;;;;;7.65;90.35;99647.59;5082609;28;19924;-78
2024/03/10 09:07:47;;;;;;;;;;;;;;;7.69;90.39;99650.91;5075064;28;19916;-78
2024/03/10 09:10:12;;;;;;;;;;;;;;;7.73;90.20;99647.25;5079096;28;19924;-78
2024/03/10 09:12:39;;;;;;;;;;;;;;;7.76;89.54;99652.28;5094823;28;20212;-78
2024/03/10 09:15:05;;;;;;;;;;;;;;;7.77;89.68;99646.16;5093044;28;19916;-78
2024/03/10 09:17:30;;;;;;;;;;;;;;;7.80;89.40;99647.78;5075461;28;19923;-78
2024/03/10 09:19:56;;;;;;;;;;;;;;;7.80;89.36;99646.00;5074639;28;19921;-78
2024/03/10 09:22:21;;;;;;;;;;;;;;;7.78;89.95;99645.25;5093995;28;20130;-78
2024/03/10 09:24:49;;;;;;;;;;;;;;;7.76;90.15;99646.25;5095099;28;19948;-78
2024/03/10 09:27:15;;;;;;;;;;;;;;;7.78;90.05;99641.78;5076331;28;20043;-78
2024/03/10 09:29:41;;;;;;;;;;;;;;;7.82;89.67;99633.78;5074997;28;19916;-78
2024/03/10 09:32:06;;;;;;;;;;;;;;;7.85;89.56;99630.16;5074855;28;19989;-78
2024/03/10 09:34:32;;;;;;;;;;;;;;;7.90;89.34;99642.97;5082537;28;19920;-78
2024/03/10 09:36:57;;;;;;;;;;;;;;;7.87;89.59;99641.34;5082526;28;19920;-78
2024/03/10 09:39:25;;;;;;;;;;;;;;;7.86;89.74;99639.69;5086665;28;19962;-78
2024/03/10 09:41:51;;;;;;;;;;;;;;;7.93;89.55;99635.84;5084535;28;19925;-78
2024/03/10 09:44:20;;;;;;;;;;;;;;;7.96;89.40;99629.63;5085234;28;20212;-78
2024/03/10 09:46:49;;;;;;;;;;;;;;;7.97;89.41;99636.56;5094223;28;19954;-78
2024/03/10 09:49:19;;;;;;;;;;;;;;;7.92;89.63;99634.16;5075043;28;19958;-78
2024/03/10 09:51:49;;;;;;;;;;;;;;;7.99;89.49;99630.31;5093054;28;20172;-78
2024/03/10 09:54:14;;;;;;;;;;;;;;;8.01;89.57;99620.66;5093609;28;19916;-78
2024/03/10 09:56:40;;;;;;;;;;;;;;;7.98;90.07;99631.25;5094385;28;20445;-78
2024/03/10 09:59:08;;;;;;;;;;;;;;;8.02;90.18;99638.00;5087289;28;19917;-77
2024/03/10 10:01:35;;;;;;;;;;;;;;;8.03;90.62;99638.84;5074364;28;20176;-78
2024/03/10 10:04:02;;;;;;;;;;;;;;;8.10;90.43;99637.63;5073366;28;19954;-78
2024/03/10 10:06:30;;;;;;;;;;;;;;;8.16;90.75;99624.25;5073331;28;20011;-78
2024/03/10 10:08:56;;;;;;;;;;;;;;;8.18;90.36;99619.81;5073178;28;19956;-78
2024/03/10 10:11:25;;;;;;;;;;;;;;;8.25;89.89;99626.41;5073794;28;19962;-78
2024/03/10 10:14:06;;;;;;;;;;;;;;;8.27;89.71;99636.78;5079401;28;19920;-78
2024/03/10 10:16:32;;;;;;;;;;;;;;;8.31;89.82;99645.28;5094327;28;19916;-78
2024/03/10 10:18:57;;;;;;;;;;;;;;;8.27;90.21;99653.25;5093639;28;20138;-78
2024/03/10 10:21:24;;;;;;;;;;;;;;;8.32;90.40;99644.38;5094422;28;19915;-78
2024/03/10 10:23:51;;;;;;;;;;;;;;;8.35;90.61;99639.00;5093728;28;20150;-78
2024/03/10 10:26:17;;;;;;;;;;;;;;;8.35;90.97;99645.06;5094550;28;19916;-78
2024/03/10 10:28:42;;;;;;;;;;;;;;;8.38;91.00;99652.72;5090795;28;19916;-78
2024/03/10 10:31:09;;;;;;;;;;;;;;;8.44;90.48;99641.16;5073530;28;19916;-78
2024/03/10 10:33:34;;;;;;;;;;;;;;;8.51;90.17;99634.72;5074129;28;20159;-78
2024/03/10 10:36:05;;;;;;;;;;;;;;;8.53;90.28;99638.09;5072780;28;19917;-78
2024/03/10 10:38:34;;;;;;;;;;;;;;;8.58;89.76;99640.47;5074144;28;20123;-78
2024/03/10 10:41:00;;;;;;;;;;;;;;;8.52;90.00;99644.25;5074017;28;19917;-78
2024/03/10 10:43:25;;;;;;;;;;;;;;;8.53;90.05;99645.94;5077148;28;19920;-78
2024/03/10 10:45:51;;;;;;;;;;;;;;;8.61;90.24;99641.16;5093549;28;20003;-78
2024/03/10 10:48:17;;;;;;;;;;;;;;;8.61;89.69;99633.31;5093775;28;19943;-78
2024/03/10 10:50:43;;;;;;;;;;;;;;;8.61;89.88;99641.16;5094299;28;19987;-78
2024/03/10 10:53:11;;;;;;;;;;;;;;;8.61;90.19;99648.97;5093888;28;19939;-78
2024/03/10 10:55:39;;;;;;;;;;;;;;;8.66;90.34;99653.97;5094283;28;19943;-78
2024/03/10 10:58:05;;;;;;;;;;;;;;;8.67;90.28;99653.03;5093758;28;19943;-78
2024/03/10 11:00:31;;;;;;;;;;;;;;;8.69;90.26;99660.78;5057437;28;20192;-78
2024/03/10 11:03:07;;;;;;;;;;;;;;;8.68;90.42;99666.94;5073394;28;20116;-77
2024/03/10 11:05:33;;;;;;;;;;;;;;;8.68;90.44;99672.16;5074155;28;20177;-78
2024/03/10 11:07:58;;;;;;;;;;;;;;;8.67;90.56;99667.88;5073411;28;19917;-78
2024/03/10 11:10:39;;;;;;;;;;;;;;;8.65;90.69;99681.81;5073322;28;20200;-78
2024/03/10 11:13:07;;;;;;;;;;;;;;;8.65;90.83;99670.53;5073368;28;20226;-78
2024/03/10 11:15:33;;;;;;;;;;;;;;;8.70;90.85;99667.72;5093910;28;19943;-78
2024/03/10 11:18:19;;;;;;;;;;;;;;;8.65;91.05;99687.03;5093403;28;19916;-78
2024/03/10 11:20:45;;;;;;;;;;;;;;;8.61;91.16;99690.75;5075541;28;19916;-78
2024/03/10 11:23:10;;;;;;;;;;;;;;;8.62;91.35;99679.38;5093655;28;20217;-78
2024/03/10 11:25:35;;;;;;;;;;;;;;;8.67;91.90;99675.69;5093580;28;20158;-78
2024/03/10 11:28:02;;;;;;;;;;;;;;;8.72;91.55;99674.53;5093406;28;19920;-76
2024/03/10 11:30:40;;;;;;;;;;;;;;;8.73;91.38;99678.84;5075672;28;20249;-78
2024/03/10 11:33:06;;;;;;;;;;;;;;;8.79;90.89;99660.25;5073068;28;20182;-78
2024/03/10 11:35:32;;;;;;;;;;;;;;;8.87;90.12;99652.00;5073786;28;19947;-78
2024/03/10 11:37:59;;;;;;;;;;;;;;;8.89;89.98;99651.91;5072489;28;20212;-78
2024/03/10 11:40:30;;;;;;;;;;;;;;;8.84;90.17;99658.25;5072980;28;20220;-78
2024/03/10 11:42:56;;;;;;;;;;;;;;;8.86;90.38;99662.53;5073011;28;19965;-78
2024/03/10 11:45:22;;;;;;;;;;;;;;;8.88;90.03;99666.75;5074371;28;19920;-77
2024/03/10 11:47:47;;;;;;;;;;;;;;;8.94;90.20;99665.59;5096290;28;19991;-78
2024/03/10 11:50:14;;;;;;;;;;;;;;;8.93;90.20;99663.88;5097438;28;19924;-78
2024/03/10 11:52:39;;;;;;;;;;;;;;;8.96;90.24;99653.28;5097382;28;19924;-78
2024/03/10 11:55:11;;;;;;;;;;;;;;;8.97;89.86;99655.81;5096268;28;20309;-77
2024/03/10 11:57:38;;;;;;;;;;;;;;;8.91;89.99;99663.97;5095849;28;19915;-77
2024/03/10 12:00:05;;;;;;;;;;;;;;;8.90;90.16;99670.13;5080752;28;19916;-77
2024/03/10 12:02:30;;;;;;;;;;;;;;;8.89;90.45;99660.59;5058194;28;19924;-76
2024/03/10 12:04:55;;;;;;;;;;;;;;;8.94;90.67;99666.41;5074756;28;20258;-76
2024/03/10 12:07:25;;;;;;;;;;;;;;;8.94;90.69;99655.97;5076342;28;19916;-76
2024/03/10 12:09:57;;;;;;;;;;;;;;;8.97;91.03;99657.59;5056803;28;20123;-76
2024/03/10 12:12:30;;;;;;;;;;;;;;;9.03;91.18;99654.66;5075860;28;19916;-76
2024/03/10 12:14:56;;;;;;;;;;;;;;;9.08;91.10;99642.19;5091141;28;19927;-76
2024/03/10 12:17:22;;;;;;;;;;;;;;;9.18;90.52;99650.38;5095929;28;19916;-76
2024/03/10 12:19:47;;;;;;;;;;;;;;;9.21;90.04;99650.22;5096264;28;19926;-76
2024/03/10 12:22:13;;;;;;;;;;;;;;;9.27;89.04;99649.03;5095769;28;19965;-77
2024/03/10 12:24:39;;;;;;;;;;;;;;;9.31;89.04;99634.88;5096345;28;19920;-76
2024/03/10 12:27:05;;;;;;;;;;;;;;;9.31;88.78;99632.25;5095403;28;19916;-76
2024/03/10 12:29:30;;;;;;;;;;;;;;;9.35;88.24;99629.41;5077442;28;20004;-78
2024/03/10 12:31:56;;;;;;;;;;;;;;;9.38;88.08;99625.78;5095712;28;20003;-78
2024/03/10 12:34:21;;;;;;;;;;;;;;;9.40;88.44;99632.63;5095436;28;20128;-78
2024/03/10 12:36:48;;;;;;;;;;;;;;;9.47;88.53;99632.28;5096387;28;19920;-78
2024/03/10 12:39:13;;;;;;;;;;;;;;;9.51;88.45;99639.00;5095476;28;20124;-78
2024/03/10 12:41:39;;;;;;;;;;;;;;;9.57;88.19;99625.63;5096348;28;19916;-78
2024/03/10 12:44:06;;;;;;;;;;;;;;;9.64;88.46;99633.94;5086094;28;19924;-76
2024/03/10 12:46:33;;;;;;;;;;;;;;;9.68;88.45;99632.81;5075108;28;19916;-76
2024/03/10 12:48:59;;;;;;;;;;;;;;;9.68;88.43;99638.91;5075509;28;20174;-78
2024/03/10 12:51:25;;;;;;;;;;;;;;;9.68;88.65;99638.91;5076037;28;19921;-78
2024/03/10 12:53:51;;;;;;;;;;;;;;;9.70;89.17;99636.22;5088072;28;20150;-78
2024/03/10 12:56:16;;;;;;;;;;;;;;;9.72;89.08;99624.75;5096200;28;20146;-78
2024/03/10 12:58:43;;;;;;;;;;;;;;;9.74;88.64;99612.41;5088162;28;20135;-78
2024/03/10 13:01:08;;;;;;;;;;;;;;;9.83;87.46;99612.84;5074929;28;19928;-78
2024/03/10 13:03:34;;;;;;;;;;;;;;;9.87;87.15;99620.41;5076229;28;19921;-78
2024/03/10 13:06:00;;;;;;;;;;;;;;;9.90;87.34;99622.84;5075360;28;19920;-78
2024/03/10 13:08:26;;;;;;;;;;;;;;;9.95;87.43;99625.19;5075741;28;19912;-78
2024/03/10 13:10:51;;;;;;;;;;;;;;;9.95;87.53;99630.41;5070071;28;19951;-78
2024/03/10 13:13:17;;;;;;;;;;;;;;;9.95;87.56;99625.19;5078162;28;20091;-77
2024/03/10 13:15:42;;;;;;;;;;;;;;;9.93;87.56;99622.69;5075294;28;19921;-78